Time;durP1;ratioP1;P1;durP2;ratioP2;P2;SDS_P1;SDS_P2;PMS_P1;PMS_P2;Temp;Humidity;BMP_temperature;BMP_pressure;BME280_temperature;BME280_humidity;BME280_pressure;Samples;Min_cycle;Max_cycle;Signal;HPM_P1;HPM_P2
2022/03/04 00:01:53;;;;;;;13.60;7.82;;;-0.30;91.10;;;;;;5115570;28;20218;-81
2022/03/04 00:04:19;;;;;;;14.60;8.20;;;-0.50;91.20;;;;;;5115848;28;20211;-83
2022/03/04 00:06:44;;;;;;;11.30;7.73;;;-0.50;91.00;;;;;;5116790;28;20162;-82
2022/03/04 00:09:10;;;;;;;10.40;7.00;;;-0.40;91.30;;;;;;5099119;28;20713;-80
2022/03/04 00:11:36;;;;;;;15.03;9.13;;;-0.50;91.80;;;;;;5098899;28;20183;-83
2022/03/04 00:14:02;;;;;;;12.73;8.27;;;-0.30;91.60;;;;;;5112478;28;20169;-81
2022/03/04 00:16:28;;;;;;;11.00;7.95;;;-0.60;92.10;;;;;;5111853;28;20413;-82
2022/03/04 00:19:12;;;;;;;12.87;7.70;;;-0.60;92.00;;;;;;5094620;28;20198;-81
2022/03/04 00:21:41;;;;;;;10.65;7.65;;;-0.60;92.10;;;;;;5084362;28;20213;-83
2022/03/04 00:24:08;;;;;;;9.93;7.00;;;-0.60;91.30;;;;;;5076133;28;20238;-81
2022/03/04 00:26:34;;;;;;;15.20;9.20;;;-0.50;92.20;;;;;;5091568;28;20182;-85
2022/03/04 00:29:00;;;;;;;11.23;8.10;;;-0.60;91.70;;;;;;5093012;28;20188;-81
2022/03/04 00:31:26;;;;;;;13.70;7.80;;;-0.60;91.70;;;;;;5093161;28;20220;-78
2022/03/04 00:33:52;;;;;;;11.82;8.18;;;-0.50;91.00;;;;;;5094582;28;20424;-83
2022/03/04 00:36:22;;;;;;;10.43;7.37;;;-0.50;91.60;;;;;;5077849;28;20184;-84
2022/03/04 00:38:49;;;;;;;11.77;7.78;;;-0.50;92.00;;;;;;5090920;28;20423;-83
2022/03/04 00:41:15;;;;;;;14.80;7.82;;;-0.60;92.10;;;;;;5081909;28;20208;-80
2022/03/04 00:43:43;;;;;;;14.55;8.38;;;-0.40;91.20;;;;;;5097608;28;20206;-79
2022/03/04 00:46:08;;;;;;;11.18;8.05;;;-0.50;91.70;;;;;;5113583;28;20158;-80
2022/03/04 00:48:34;;;;;;;13.27;7.87;;;-0.60;91.30;;;;;;5094109;28;20185;-79
2022/03/04 00:51:00;;;;;;;13.40;8.37;;;-0.50;91.50;;;;;;5059331;28;20238;-79
2022/03/04 00:53:26;;;;;;;10.33;7.40;;;-0.60;91.40;;;;;;5074630;28;20315;-82
2022/03/04 00:55:52;;;;;;;12.07;8.00;;;-0.60;91.70;;;;;;5093213;28;20178;-80
2022/03/04 00:58:17;;;;;;;14.07;8.80;;;-0.60;91.90;;;;;;5092789;28;20643;-80
2022/03/04 01:00:43;;;;;;;9.10;6.80;;;-0.70;91.60;;;;;;5075570;28;20630;-80
2022/03/04 01:03:08;;;;;;;9.43;7.33;;;-0.60;91.60;;;;;;5075278;28;20196;-78
2022/03/04 01:05:34;;;;;;;9.97;6.80;;;-0.60;91.60;;;;;;5091957;28;20219;-80
2022/03/04 01:08:00;;;;;;;15.20;8.50;;;-0.70;91.70;;;;;;5091583;28;20543;-79
2022/03/04 01:10:26;;;;;;;15.70;8.30;;;-0.70;92.30;;;;;;5074579;28;20298;-80
2022/03/04 01:12:51;;;;;;;13.10;8.20;;;-0.60;92.10;;;;;;5090857;28;20190;-79
2022/03/04 01:15:17;;;;;;;15.03;8.87;;;-0.60;91.50;;;;;;5091148;28;20222;-79
2022/03/04 01:17:43;;;;;;;13.77;9.17;;;-0.50;91.70;;;;;;5090534;28;20459;-79
2022/03/04 01:20:09;;;;;;;15.30;8.60;;;-0.70;91.40;;;;;;5057045;28;20277;-80
2022/03/04 01:22:34;;;;;;;15.05;8.65;;;-0.60;91.80;;;;;;5074044;28;20695;-80
2022/03/04 01:25:00;;;;;;;12.57;8.27;;;-0.70;92.00;;;;;;5073837;28;20219;-80
2022/03/04 01:27:27;;;;;;;12.10;8.83;;;-0.70;92.50;;;;;;5073353;28;20559;-81
2022/03/04 01:29:53;;;;;;;19.35;10.13;;;-0.70;92.20;;;;;;5090717;28;20179;-82
2022/03/04 01:32:18;;;;;;;13.77;8.47;;;-0.80;92.20;;;;;;5058227;28;20690;-82
2022/03/04 01:34:44;;;;;;;15.90;8.53;;;-0.90;92.40;;;;;;5074754;28;20237;-84
2022/03/04 01:37:10;;;;;;;13.30;8.90;;;-0.90;92.70;;;;;;5058226;28;20186;-84
2022/03/04 01:39:36;;;;;;;21.07;8.77;;;-0.90;92.10;;;;;;5090551;28;20239;-81
2022/03/04 01:42:02;;;;;;;17.40;9.77;;;-0.90;92.20;;;;;;5092282;28;20440;-83
2022/03/04 01:44:27;;;;;;;15.63;9.18;;;-0.80;93.00;;;;;;5073948;28;20366;-83
2022/03/04 01:46:53;;;;;;;13.43;8.77;;;-0.90;92.80;;;;;;5091022;28;21059;-79
2022/03/04 01:49:19;;;;;;;19.23;9.47;;;-0.90;92.70;;;;;;5090324;28;20273;-81
2022/03/04 01:51:45;;;;;;;18.97;9.93;;;-1.00;93.50;;;;;;5090638;28;20580;-80
2022/03/04 01:54:10;;;;;;;15.37;8.93;;;-1.10;93.80;;;;;;5057679;28;20624;-80
2022/03/04 01:56:36;;;;;;;15.10;8.90;;;-1.20;93.70;;;;;;5090667;28;20189;-81
2022/03/04 01:59:02;;;;;;;14.03;9.27;;;-1.20;93.60;;;;;;5090756;28;20292;-81
2022/03/04 02:01:29;;;;;;;18.20;9.30;;;-1.20;93.90;;;;;;5074364;28;20206;-81
2022/03/04 02:03:55;;;;;;;17.02;9.07;;;-1.10;93.60;;;;;;5073513;28;20429;-81
2022/03/04 02:06:20;;;;;;;21.40;11.90;;;-1.10;93.60;;;;;;5090561;28;20651;-81
2022/03/04 02:08:46;;;;;;;20.20;10.00;;;-1.00;92.10;;;;;;5089790;28;20587;-81
2022/03/04 02:11:12;;;;;;;22.77;9.93;;;-0.90;91.50;;;;;;5096307;28;20203;-80
2022/03/04 02:13:38;;;;;;;17.13;10.30;;;-0.90;91.70;;;;;;5056216;28;20262;-80
2022/03/04 02:16:21;;;;;;;16.63;9.73;;;-0.70;91.20;;;;;;5056055;28;20197;-79
2022/03/04 02:18:47;;;;;;;18.20;10.27;;;-0.20;86.40;;;;;;5090829;28;20409;-79
2022/03/04 02:21:13;;;;;;;22.80;11.95;;;0.30;83.30;;;;;;5055797;28;20214;-83
2022/03/04 02:23:39;;;;;;;17.57;10.03;;;0.40;81.40;;;;;;5073003;28;20579;-83
2022/03/04 02:26:05;;;;;;;18.93;11.17;;;0.40;80.40;;;;;;5073535;28;21028;-82
2022/03/04 02:28:31;;;;;;;25.90;11.90;;;1.00;78.20;;;;;;5096333;28;20408;-82
2022/03/04 02:30:56;;;;;;;17.90;11.13;;;1.00;76.60;;;;;;5098692;28;20452;-80
2022/03/04 02:33:22;;;;;;;19.17;10.80;;;1.00;76.80;;;;;;5082954;28;20186;-80
2022/03/04 02:35:48;;;;;;;20.00;10.83;;;1.00;75.80;;;;;;5102412;28;20183;-80
2022/03/04 02:38:14;;;;;;;19.40;10.67;;;0.90;77.10;;;;;;5084427;28;20203;-81
2022/03/04 02:40:40;;;;;;;19.60;11.80;;;1.00;76.40;;;;;;5101435;28;21043;-81
2022/03/04 02:43:06;;;;;;;20.80;11.03;;;1.10;75.60;;;;;;5083096;28;20186;-80
2022/03/04 02:45:32;;;;;;;19.33;11.18;;;1.00;76.60;;;;;;5074562;28;20272;-78
2022/03/04 02:47:58;;;;;;;21.88;11.35;;;1.20;74.60;;;;;;5089922;28;20189;-81
2022/03/04 02:50:24;;;;;;;21.43;12.17;;;1.30;74.00;;;;;;5072538;28;20184;-80
2022/03/04 02:52:49;;;;;;;20.03;11.67;;;1.30;74.70;;;;;;5055433;28;20195;-79
2022/03/04 02:55:15;;;;;;;25.10;12.20;;;1.40;73.40;;;;;;5089252;28;20205;-80
2022/03/04 02:57:45;;;;;;;20.67;12.43;;;1.40;72.90;;;;;;5090725;28;20203;-80
2022/03/04 03:00:13;;;;;;;17.48;10.45;;;1.40;72.90;;;;;;5072443;28;20224;-82
2022/03/04 03:02:40;;;;;;;22.98;12.75;;;1.30;74.40;;;;;;5089141;28;20192;-81
2022/03/04 03:05:06;;;;;;;21.63;12.48;;;1.20;74.20;;;;;;5072358;28;20695;-83
2022/03/04 03:07:32;;;;;;;26.13;13.53;;;1.20;76.50;;;;;;5072979;28;20212;-81
2022/03/04 03:09:57;;;;;;;20.40;12.67;;;1.10;76.00;;;;;;5056648;28;20440;-80
2022/03/04 03:12:23;;;;;;;18.60;11.87;;;1.20;74.10;;;;;;5055810;28;20237;-82
2022/03/04 03:14:48;;;;;;;23.23;12.10;;;1.20;73.90;;;;;;5056305;28;20633;-79
2022/03/04 03:17:15;;;;;;;23.73;11.47;;;1.30;73.00;;;;;;5056610;28;20219;-80
2022/03/04 03:19:40;;;;;;;19.95;11.48;;;1.40;72.80;;;;;;5089957;28;20252;-83
2022/03/04 03:22:06;;;;;;;17.10;11.20;;;1.30;72.20;;;;;;5074385;28;20213;-80
2022/03/04 03:24:32;;;;;;;28.50;12.23;;;1.40;71.90;;;;;;5089373;28;20468;-78
2022/03/04 03:26:58;;;;;;;25.80;13.10;;;1.50;71.80;;;;;;5088521;28;21009;-79
2022/03/04 03:29:23;;;;;;;19.40;11.23;;;1.50;72.00;;;;;;5088095;28;20271;-77
2022/03/04 03:31:49;;;;;;;19.63;12.90;;;1.40;72.00;;;;;;5089866;28;20199;-79
2022/03/04 03:34:15;;;;;;;18.90;12.10;;;1.40;72.00;;;;;;5072291;28;20766;-81
2022/03/04 03:36:41;;;;;;;20.37;12.10;;;1.40;71.60;;;;;;5088878;28;20175;-77
2022/03/04 03:39:10;;;;;;;21.33;12.15;;;1.20;76.20;;;;;;5088527;28;20191;-79
2022/03/04 03:41:36;;;;;;;19.33;11.55;;;0.70;80.90;;;;;;5088513;28;20207;-77
2022/03/04 03:44:02;;;;;;;22.55;11.43;;;0.30;83.40;;;;;;5088708;28;20186;-78
2022/03/04 03:46:28;;;;;;;19.50;11.82;;;0.20;85.50;;;;;;5072244;28;20660;-80
2022/03/04 03:48:53;;;;;;;18.07;11.00;;;0.00;86.80;;;;;;5088407;28;20190;-76
2022/03/04 03:51:19;;;;;;;18.63;11.70;;;-0.20;88.70;;;;;;5071073;28;20215;-77
2022/03/04 03:53:45;;;;;;;19.63;12.07;;;-0.30;89.80;;;;;;5089604;28;20222;-77
2022/03/04 03:56:11;;;;;;;21.97;12.70;;;-0.40;90.30;;;;;;5090034;28;20735;-76
2022/03/04 03:58:37;;;;;;;23.47;12.27;;;-0.50;90.90;;;;;;5088514;28;20209;-78
2022/03/04 04:01:03;;;;;;;21.23;12.73;;;-0.60;91.00;;;;;;5090715;28;20213;-77
2022/03/04 04:03:29;;;;;;;17.50;11.25;;;-0.60;91.30;;;;;;5088878;28;20517;-77
2022/03/04 04:05:55;;;;;;;27.67;14.77;;;-0.70;91.80;;;;;;5092138;28;20260;-78
2022/03/04 04:08:21;;;;;;;24.27;13.23;;;-0.80;92.10;;;;;;5093381;28;20187;-78
2022/03/04 04:10:47;;;;;;;23.30;13.50;;;-0.80;92.20;;;;;;5092654;28;20275;-78
2022/03/04 04:13:13;;;;;;;23.10;13.10;;;-0.90;92.40;;;;;;5092911;28;20650;-79
2022/03/04 04:15:38;;;;;;;23.13;12.03;;;-0.90;92.60;;;;;;5092941;28;20712;-77
2022/03/04 04:18:04;;;;;;;22.37;12.30;;;-1.00;92.30;;;;;;5077760;28;20328;-82
2022/03/04 04:20:30;;;;;;;20.67;12.73;;;-1.10;92.70;;;;;;5078084;28;20192;-81
2022/03/04 04:22:55;;;;;;;22.63;13.10;;;-1.10;93.20;;;;;;5076189;28;20210;-80
2022/03/04 04:25:21;;;;;;;23.20;13.17;;;-1.20;93.80;;;;;;5075317;28;20568;-83
2022/03/04 04:27:47;;;;;;;20.60;12.95;;;-1.20;94.00;;;;;;5093269;28;20592;-81
2022/03/04 04:30:13;;;;;;;22.33;13.50;;;-1.30;94.00;;;;;;5075781;28;20249;-82
2022/03/04 04:32:39;;;;;;;23.50;14.27;;;-1.30;94.40;;;;;;5075338;28;20183;-82
2022/03/04 04:35:05;;;;;;;27.73;13.87;;;-1.40;94.60;;;;;;5075407;28;20196;-80
2022/03/04 04:37:31;;;;;;;24.63;15.07;;;-1.50;94.80;;;;;;5091642;28;20417;-80
2022/03/04 04:39:57;;;;;;;22.00;13.33;;;-1.60;95.20;;;;;;5093227;28;20186;-82
2022/03/04 04:42:22;;;;;;;22.60;12.77;;;-1.70;94.80;;;;;;5092192;28;20209;-82
2022/03/04 04:44:48;;;;;;;23.07;14.00;;;-1.60;95.00;;;;;;5075127;28;20225;-83
2022/03/04 04:47:14;;;;;;;21.67;12.70;;;-1.60;94.40;;;;;;5075560;28;20974;-81
2022/03/04 04:49:40;;;;;;;23.33;13.57;;;-1.60;94.60;;;;;;5093512;28;20420;-82
2022/03/04 04:52:07;;;;;;;25.30;13.03;;;-1.60;94.50;;;;;;5075533;28;20207;-81
2022/03/04 04:54:34;;;;;;;23.20;12.73;;;-1.60;94.90;;;;;;5091782;28;20559;-82
2022/03/04 04:57:00;;;;;;;20.02;12.70;;;-1.70;94.70;;;;;;5075148;28;20291;-81
2022/03/04 04:59:25;;;;;;;26.10;14.60;;;-1.70;94.90;;;;;;5075169;28;20277;-78
2022/03/04 05:01:51;;;;;;;28.57;15.23;;;-1.70;95.10;;;;;;5075601;28;20215;-79
2022/03/04 05:04:17;;;;;;;25.07;14.00;;;-1.80;95.60;;;;;;5058415;28;20256;-80
2022/03/04 05:06:42;;;;;;;24.10;14.33;;;-1.80;95.80;;;;;;5075335;28;20190;-79
2022/03/04 05:09:08;;;;;;;23.40;14.60;;;-1.80;96.00;;;;;;5074753;28;20201;-80
2022/03/04 05:11:34;;;;;;;24.88;14.88;;;-1.80;96.10;;;;;;5091914;28;20312;-81
2022/03/04 05:14:00;;;;;;;19.47;12.33;;;-1.90;96.00;;;;;;5074970;28;20297;-81
2022/03/04 05:16:26;;;;;;;25.73;14.40;;;-1.90;96.10;;;;;;5057899;28;20186;-81
2022/03/04 05:18:51;;;;;;;22.70;11.70;;;-1.90;95.90;;;;;;5091249;28;20231;-81
2022/03/04 05:21:17;;;;;;;32.03;14.00;;;-2.00;95.70;;;;;;5074530;28;20202;-80
2022/03/04 05:24:00;;;;;;;22.77;14.07;;;-2.00;95.90;;;;;;5073933;28;20728;-82
2022/03/04 05:26:35;;;;;;;29.77;14.75;;;-1.90;95.80;;;;;;5076200;28;20197;-80
2022/03/04 05:29:03;;;;;;;24.00;14.88;;;-2.00;96.30;;;;;;5072831;28;20182;-80
2022/03/04 05:31:29;;;;;;;25.75;14.90;;;-2.00;96.80;;;;;;5056108;28;20396;-80
2022/03/04 05:33:55;;;;;;;20.40;12.00;;;-2.10;97.10;;;;;;5089532;28;20277;-79
2022/03/04 05:36:21;;;;;;;30.43;17.13;;;-2.10;96.50;;;;;;5091992;28;20737;-80
2022/03/04 05:38:48;;;;;;;34.45;16.08;;;-2.20;96.70;;;;;;5089259;28;20420;-80
2022/03/04 05:41:15;;;;;;;43.42;20.23;;;-2.30;97.60;;;;;;5072222;28;20206;-81
2022/03/04 05:43:42;;;;;;;35.33;16.50;;;-2.40;97.60;;;;;;5089151;28;20178;-80
2022/03/04 05:46:07;;;;;;;35.28;15.73;;;-2.40;98.20;;;;;;5089280;28;20245;-80
2022/03/04 05:48:33;;;;;;;30.73;15.43;;;-2.40;97.90;;;;;;5072356;28;20183;-81
2022/03/04 05:50:59;;;;;;;29.85;15.90;;;-2.40;97.70;;;;;;5089876;28;20269;-83
2022/03/04 05:53:25;;;;;;;24.80;15.20;;;-2.40;97.30;;;;;;5089993;28;20264;-80
2022/03/04 05:55:50;;;;;;;29.27;16.60;;;-2.40;97.30;;;;;;5055863;28;20227;-79
2022/03/04 05:58:16;;;;;;;27.33;16.27;;;-2.40;97.40;;;;;;5089340;28;20170;-81
2022/03/04 06:00:42;;;;;;;29.37;15.23;;;-2.50;97.30;;;;;;5091390;28;20447;-80
2022/03/04 06:03:08;;;;;;;24.13;13.90;;;-2.60;97.20;;;;;;5072979;28;20663;-78
2022/03/04 06:05:34;;;;;;;30.10;16.00;;;-2.50;97.50;;;;;;5090604;28;20210;-79
2022/03/04 06:08:00;;;;;;;27.00;14.40;;;-2.50;97.40;;;;;;5072481;28;20497;-80
2022/03/04 06:10:25;;;;;;;24.17;13.70;;;-2.50;97.50;;;;;;5089201;28;20247;-81
2022/03/04 06:12:51;;;;;;;22.63;12.03;;;-2.40;97.10;;;;;;5072630;28;20611;-80
2022/03/04 06:15:17;;;;;;;23.87;12.87;;;-2.40;97.00;;;;;;5089064;28;20548;-82
2022/03/04 06:17:50;;;;;;;23.60;14.10;;;-2.40;97.10;;;;;;5102315;28;20441;-79
2022/03/04 06:20:20;;;;;;;26.58;13.82;;;-2.40;98.00;;;;;;5091560;28;20190;-82
2022/03/04 06:22:46;;;;;;;21.83;12.63;;;-2.30;97.50;;;;;;5094867;28;20181;-83
2022/03/04 06:25:13;;;;;;;23.27;13.80;;;-2.50;97.30;;;;;;5096578;28;20198;-82
2022/03/04 06:27:52;;;;;;;22.85;12.40;;;-2.50;97.60;;;;;;5060715;28;20187;-83
2022/03/04 06:30:17;;;;;;;31.05;13.48;;;-2.40;97.40;;;;;;5093520;28;20181;-82
2022/03/04 06:32:43;;;;;;;24.47;14.33;;;-2.40;97.80;;;;;;5095328;28;20549;-84
2022/03/04 06:35:09;;;;;;;34.23;15.57;;;-2.40;98.10;;;;;;5060140;28;20203;-82
2022/03/04 06:37:34;;;;;;;30.67;14.47;;;-2.30;97.60;;;;;;5076580;28;20190;-82
2022/03/04 06:40:00;;;;;;;29.77;14.60;;;-2.20;97.40;;;;;;5093452;28;20444;-82
2022/03/04 06:42:26;;;;;;;26.30;12.73;;;-2.20;97.10;;;;;;5093182;28;20245;-84
2022/03/04 06:44:51;;;;;;;31.60;13.47;;;-1.90;97.20;;;;;;5075841;28;20287;-84
2022/03/04 06:47:17;;;;;;;25.63;14.73;;;-1.70;96.50;;;;;;5076696;28;20212;-82
2022/03/04 06:49:43;;;;;;;23.90;15.03;;;-1.50;96.40;;;;;;5076545;28;20567;-80
2022/03/04 06:52:08;;;;;;;31.97;19.30;;;-1.00;96.70;;;;;;5092897;28;20653;-80
2022/03/04 06:54:36;;;;;;;45.80;19.43;;;-0.30;95.60;;;;;;5075781;28;20210;-83
2022/03/04 06:57:02;;;;;;;43.42;22.60;;;0.10;92.70;;;;;;5076555;28;20192;-84
2022/03/04 06:59:28;;;;;;;47.90;23.08;;;0.50;91.90;;;;;;5093667;28;20190;-82
2022/03/04 07:01:53;;;;;;;36.27;20.60;;;1.00;90.80;;;;;;5091697;28;20307;-81
2022/03/04 07:04:19;;;;;;;32.60;19.03;;;1.30;89.40;;;;;;5091369;28;20211;-82
2022/03/04 07:06:45;;;;;;;31.30;17.60;;;1.70;87.00;;;;;;5074812;28;20206;-84
2022/03/04 07:09:10;;;;;;;26.20;16.50;;;2.00;85.70;;;;;;5058212;28;20863;-83
2022/03/04 07:11:36;;;;;;;27.50;15.47;;;2.40;83.10;;;;;;5092147;28;20570;-81
2022/03/04 07:14:02;;;;;;;26.27;16.00;;;2.70;80.60;;;;;;5090846;28;20324;-82
2022/03/04 07:16:28;;;;;;;27.33;16.47;;;3.20;79.20;;;;;;5090266;28;20269;-81
2022/03/04 07:18:53;;;;;;;28.47;16.20;;;3.30;76.20;;;;;;5090366;28;20465;-81
2022/03/04 07:21:19;;;;;;;25.93;14.73;;;3.60;75.80;;;;;;5090005;28;20224;-80
2022/03/04 07:23:45;;;;;;;30.90;15.83;;;4.00;74.00;;;;;;5090029;28;20235;-82
2022/03/04 07:26:12;;;;;;;28.13;14.50;;;4.30;72.60;;;;;;5089476;28;20214;-82
2022/03/04 07:28:38;;;;;;;25.00;15.73;;;4.50;71.80;;;;;;5089899;28;20174;-82
2022/03/04 07:31:03;;;;;;;23.53;14.97;;;4.90;70.90;;;;;;5089994;28;20443;-81
2022/03/04 07:33:29;;;;;;;22.43;14.70;;;5.30;68.10;;;;;;5072733;28;20428;-83
2022/03/04 07:35:55;;;;;;;29.17;16.60;;;5.90;67.60;;;;;;5089694;28;20259;-82
2022/03/04 07:38:20;;;;;;;24.70;16.90;;;6.20;65.00;;;;;;5055920;28;20198;-81
2022/03/04 07:40:47;;;;;;;58.23;34.80;;;6.10;65.30;;;;;;5089114;28;20206;-83
2022/03/04 07:43:12;;;;;;;72.77;42.00;;;5.60;66.50;;;;;;5088829;28;20662;-83
2022/03/04 07:45:38;;;;;;;36.20;23.50;;;5.40;68.90;;;;;;5090131;28;20568;-82
2022/03/04 07:48:04;;;;;;;32.50;19.03;;;5.30;69.20;;;;;;5089921;28;20416;-80
2022/03/04 07:50:30;;;;;;;31.07;19.53;;;4.90;68.40;;;;;;5071653;28;20307;-81
2022/03/04 07:52:55;;;;;;;30.90;19.10;;;4.70;68.90;;;;;;5071424;28;20420;-80
2022/03/04 07:55:26;;;;;;;29.20;18.43;;;4.50;68.50;;;;;;5071685;28;20213;-82
2022/03/04 07:57:53;;;;;;;31.33;20.30;;;4.20;68.80;;;;;;5088576;28;20688;-81
2022/03/04 08:00:19;;;;;;;40.90;18.17;;;3.90;72.70;;;;;;5090614;28;20427;-80
2022/03/04 08:02:44;;;;;;;31.97;18.77;;;4.00;74.40;;;;;;5089762;28;20424;-81
2022/03/04 08:05:10;;;;;;;31.57;18.50;;;4.00;75.40;;;;;;5089226;28;20220;-78
2022/03/04 08:07:37;;;;;;;22.93;16.30;;;4.50;75.40;;;;;;5072307;28;20209;-80
2022/03/04 08:10:07;;;;;;;26.90;14.80;;;5.20;73.20;;;;;;5090419;28;21227;-80
2022/03/04 08:12:33;;;;;;;24.77;15.90;;;5.30;71.40;;;;;;5088661;28;20819;-80
2022/03/04 08:14:59;;;;;;;26.80;16.83;;;5.50;69.30;;;;;;5072144;28;20428;-81
2022/03/04 08:17:26;;;;;;;32.33;16.50;;;5.90;68.90;;;;;;5089325;28;20202;-79
2022/03/04 08:19:51;;;;;;;27.73;18.20;;;6.40;67.30;;;;;;5072533;28;20222;-80
2022/03/04 08:22:17;;;;;;;30.30;17.27;;;6.80;65.10;;;;;;5072542;28;21056;-81
2022/03/04 08:24:43;;;;;;;24.93;15.77;;;7.20;64.20;;;;;;5072133;28;20244;-82
2022/03/04 08:27:08;;;;;;;28.30;15.80;;;7.50;62.10;;;;;;5072000;28;20190;-79
2022/03/04 08:29:34;;;;;;;28.57;17.20;;;7.90;61.30;;;;;;5089607;28;20245;-79
2022/03/04 08:32:01;;;;;;;27.97;17.17;;;8.40;60.20;;;;;;5055868;28;20211;-82
2022/03/04 08:34:26;;;;;;;30.70;18.20;;;8.70;59.60;;;;;;5089377;28;20186;-79
2022/03/04 08:36:53;;;;;;;26.10;17.53;;;9.00;58.50;;;;;;5090650;28;20525;-80
2022/03/04 08:39:18;;;;;;;28.57;18.13;;;9.10;57.30;;;;;;5088505;28;20202;-81
2022/03/04 08:41:44;;;;;;;29.67;17.43;;;9.20;56.70;;;;;;5070948;28;20555;-81
2022/03/04 08:44:10;;;;;;;29.23;18.00;;;9.60;55.20;;;;;;5072453;28;20194;-82
2022/03/04 08:46:38;;;;;;;32.03;18.00;;;9.80;54.80;;;;;;5087879;28;20970;-80
2022/03/04 08:49:04;;;;;;;37.63;20.50;;;9.90;53.70;;;;;;5071473;28;20182;-80
2022/03/04 08:51:30;;;;;;;26.40;18.53;;;9.50;55.40;;;;;;5092154;28;20573;-80
2022/03/04 08:53:56;;;;;;;31.40;19.10;;;9.40;55.80;;;;;;5091541;28;20479;-80
2022/03/04 08:56:22;;;;;;;35.43;21.73;;;9.80;55.00;;;;;;5091512;28;20732;-81
2022/03/04 08:58:48;;;;;;;34.63;22.00;;;10.30;52.90;;;;;;5090955;28;20676;-81
2022/03/04 09:01:14;;;;;;;32.93;20.80;;;10.70;52.60;;;;;;5092939;28;20433;-80
2022/03/04 09:03:40;;;;;;;29.93;19.73;;;10.90;53.00;;;;;;5091163;28;21088;-81
2022/03/04 09:06:06;;;;;;;30.80;19.40;;;10.90;52.20;;;;;;5090643;28;20212;-81
2022/03/04 09:08:31;;;;;;;36.50;20.90;;;11.00;52.20;;;;;;5090278;28;20952;-82
2022/03/04 09:10:57;;;;;;;32.73;19.60;;;11.20;50.50;;;;;;5090026;28;20204;-82
2022/03/04 09:13:23;;;;;;;28.70;18.57;;;11.60;48.60;;;;;;5073684;28;20192;-81
2022/03/04 09:15:49;;;;;;;26.57;19.23;;;12.30;47.60;;;;;;5089884;28;20349;-81
2022/03/04 09:18:15;;;;;;;28.73;17.63;;;12.70;47.00;;;;;;5089986;28;20432;-80
2022/03/04 09:20:41;;;;;;;29.33;18.03;;;13.10;46.30;;;;;;5091448;28;20752;-81
2022/03/04 09:23:06;;;;;;;30.60;19.53;;;13.30;45.60;;;;;;5090186;28;20654;-81
2022/03/04 09:25:34;;;;;;;26.70;17.63;;;13.20;45.20;;;;;;5072696;28;20335;-84
2022/03/04 09:28:00;;;;;;;31.53;17.50;;;13.20;44.00;;;;;;5093755;28;20184;-83
2022/03/04 09:30:25;;;;;;;31.83;18.93;;;13.20;44.10;;;;;;5092020;28;20455;-79
2022/03/04 09:32:51;;;;;;;27.30;19.10;;;13.20;43.80;;;;;;5090923;28;20502;-81
2022/03/04 09:35:18;;;;;;;26.63;18.90;;;13.10;43.30;;;;;;5089551;28;20197;-81
2022/03/04 09:37:44;;;;;;;24.37;17.23;;;13.30;43.30;;;;;;5089099;28;20300;-81
2022/03/04 09:40:11;;;;;;;27.70;19.40;;;13.80;43.30;;;;;;5073058;28;20441;-81
2022/03/04 09:42:37;;;;;;;29.07;19.37;;;14.00;41.70;;;;;;5072436;28;20459;-80
2022/03/04 09:45:04;;;;;;;34.30;19.47;;;13.90;42.30;;;;;;5089460;28;20563;-83
2022/03/04 09:47:31;;;;;;;26.93;17.77;;;13.50;42.40;;;;;;5090750;28;20187;-82
2022/03/04 09:49:58;;;;;;;30.00;19.17;;;13.80;43.20;;;;;;5089035;28;20416;-80
2022/03/04 09:52:24;;;;;;;28.53;19.93;;;13.80;42.40;;;;;;5091173;28;20920;-81
2022/03/04 09:54:52;;;;;;;26.03;19.10;;;13.60;42.80;;;;;;5089293;28;20522;-81
2022/03/04 09:57:18;;;;;;;28.60;19.37;;;13.50;43.30;;;;;;5090222;28;20414;-80
2022/03/04 09:59:44;;;;;;;30.17;19.30;;;13.80;43.10;;;;;;5088739;28;20614;-81
2022/03/04 10:02:14;;;;;;;33.73;19.90;;;14.20;42.50;;;;;;5087549;28;21001;-82
2022/03/04 10:04:41;;;;;;;25.50;18.73;;;14.20;41.60;;;;;;5072170;28;20468;-79
2022/03/04 10:07:12;;;;;;;28.10;20.53;;;14.50;41.10;;;;;;5088695;28;20979;-84
2022/03/04 10:09:45;;;;;;;28.30;18.80;;;14.60;41.40;;;;;;5088834;28;20443;-81
2022/03/04 10:12:13;;;;;;;28.70;18.70;;;14.90;41.20;;;;;;5090001;28;20455;-81
2022/03/04 10:14:57;;;;;;;29.20;19.47;;;15.20;40.30;;;;;;5055558;28;20527;-83
2022/03/04 10:17:24;;;;;;;31.30;20.03;;;15.10;39.30;;;;;;5072265;28;20420;-82
2022/03/04 10:19:57;;;;;;;29.77;19.57;;;15.00;39.20;;;;;;5088222;28;20423;-80
2022/03/04 10:22:33;;;;;;;33.67;20.90;;;15.20;40.00;;;;;;5071131;28;20527;-80
2022/03/04 10:24:59;;;;;;;29.97;18.87;;;15.40;39.00;;;;;;5089840;28;20470;-79
2022/03/04 10:27:31;;;;;;;26.37;18.43;;;15.60;39.20;;;;;;5072303;28;20840;-82
2022/03/04 10:29:57;;;;;;;34.33;20.83;;;15.30;39.60;;;;;;5072478;28;20420;-80
2022/03/04 10:32:24;;;;;;;29.10;21.30;;;15.70;40.00;;;;;;5087999;28;20433;-79
2022/03/04 10:34:54;;;;;;;25.13;19.57;;;15.90;40.30;;;;;;5071786;28;20220;-80
2022/03/04 10:37:40;;;;;;;33.60;22.20;;;16.70;39.40;;;;;;5087936;28;21000;-80
2022/03/04 10:40:30;;;;;;;31.00;20.13;;;17.00;38.10;;;;;;5087849;28;20427;-80
2022/03/04 10:42:59;;;;;;;27.43;19.60;;;16.40;37.80;;;;;;5070774;28;20441;-84
2022/03/04 10:45:36;;;;;;;31.93;20.57;;;16.00;37.00;;;;;;5088918;28;20984;-82
2022/03/04 10:48:17;;;;;;;26.73;18.57;;;16.70;37.40;;;;;;5070676;28;20987;-80
2022/03/04 10:50:45;;;;;;;30.60;19.27;;;16.80;35.40;;;;;;5088048;28;20445;-80
2022/03/04 10:53:15;;;;;;;27.73;19.10;;;16.70;35.10;;;;;;5071689;28;20424;-80
2022/03/04 10:55:45;;;;;;;28.63;18.00;;;16.50;34.50;;;;;;5089192;28;20427;-80
2022/03/04 10:58:19;;;;;;;27.07;19.10;;;16.30;33.30;;;;;;5089686;28;20412;-80
2022/03/04 11:00:56;;;;;;;32.77;19.20;;;16.10;34.00;;;;;;5088850;28;20990;-80
2022/03/04 11:03:23;;;;;;;31.60;20.17;;;16.10;34.40;;;;;;5088438;28;20511;-82
2022/03/04 11:05:50;;;;;;;27.10;17.33;;;15.80;33.00;;;;;;5087797;28;21381;-80
2022/03/04 11:08:17;;;;;;;28.40;17.63;;;15.30;32.10;;;;;;5072368;28;20471;-81
2022/03/04 11:10:43;;;;;;;28.47;17.30;;;14.60;31.60;;;;;;5087468;28;20474;-82
2022/03/04 11:13:10;;;;;;;28.70;19.50;;;15.30;34.10;;;;;;5086675;28;20810;-80
2022/03/04 11:15:38;;;;;;;27.93;18.03;;;15.50;33.30;;;;;;5071010;28;20471;-79
2022/03/04 11:18:10;;;;;;;24.43;16.83;;;15.70;31.90;;;;;;5086910;28;20451;-81
2022/03/04 11:20:37;;;;;;;27.17;17.50;;;16.00;31.40;;;;;;5087194;28;20449;-82
2022/03/04 11:23:04;;;;;;;29.80;18.10;;;16.30;31.20;;;;;;5087270;28;21009;-81
2022/03/04 11:25:43;;;;;;;24.07;16.60;;;16.40;30.20;;;;;;5087301;28;20464;-81
2022/03/04 11:28:15;;;;;;;23.73;16.53;;;16.30;29.80;;;;;;5088749;28;20432;-81
2022/03/04 11:31:00;;;;;;;28.93;17.57;;;16.20;29.30;;;;;;5087046;28;21045;-81
2022/03/04 11:33:29;;;;;;;20.07;15.20;;;16.40;30.00;;;;;;5071445;28;20417;-81
2022/03/04 11:36:20;;;;;;;27.93;16.80;;;16.70;29.70;;;;;;5087222;28;20435;-80
2022/03/04 11:38:49;;;;;;;31.80;20.97;;;16.10;28.00;;;;;;5087283;28;20480;-80
2022/03/04 11:41:27;;;;;;;29.00;17.60;;;16.50;28.40;;;;;;5088233;28;20499;-80
2022/03/04 11:43:57;;;;;;;29.20;19.30;;;16.50;29.10;;;;;;5087055;28;20443;-81
2022/03/04 11:46:29;;;;;;;23.53;16.00;;;16.80;29.40;;;;;;5071033;28;20460;-80
2022/03/04 11:49:23;;;;;;;22.07;16.87;;;16.90;29.60;;;;;;5087334;28;20897;-81
2022/03/04 11:52:10;;;;;;;107.53;20.40;;;17.50;29.10;;;;;;5088922;28;20436;-79
2022/03/04 11:54:40;;;;;;;23.83;15.43;;;17.30;28.40;;;;;;5088584;28;20948;-81
2022/03/04 11:57:23;;;;;;;22.20;15.20;;;17.10;28.50;;;;;;5088909;28;20410;-80
2022/03/04 12:00:01;;;;;;;21.70;13.73;;;17.50;28.50;;;;;;5055066;28;20428;-80
2022/03/04 12:02:47;;;;;;;26.77;14.90;;;17.40;26.90;;;;;;5087657;28;20437;-80
2022/03/04 12:07:46;;;;;;;17.97;14.00;;;17.20;26.30;;;;;;5089215;28;20445;-80
2022/03/04 12:10:14;;;;;;;18.70;14.30;;;17.00;24.90;;;;;;5087512;28;20428;-80
2022/03/04 12:13:00;;;;;;;23.33;15.00;;;16.50;24.80;;;;;;5087175;28;20526;-79
2022/03/04 12:15:26;;;;;;;22.07;14.60;;;16.40;26.30;;;;;;5089227;28;21054;-79
2022/03/04 12:18:02;;;;;;;19.40;14.13;;;16.50;25.70;;;;;;5090834;28;20474;-77
2022/03/04 12:20:39;;;;;;;19.30;12.50;;;15.10;24.20;;;;;;5089660;28;20420;-78
2022/03/04 12:23:10;;;;;;;20.50;13.93;;;15.60;25.50;;;;;;5090960;28;20482;-78
2022/03/04 12:25:54;;;;;;;19.43;13.43;;;15.70;25.50;;;;;;5074031;28;20533;-79
2022/03/04 12:28:25;;;;;;;22.63;13.13;;;15.70;24.60;;;;;;5094202;28;20427;-78
2022/03/04 12:31:04;;;;;;;25.37;12.73;;;15.80;25.40;;;;;;5094569;28;20436;-78
2022/03/04 12:33:35;;;;;;;22.00;13.30;;;15.60;25.40;;;;;;5094130;28;20416;-78
2022/03/04 12:36:07;;;;;;;16.80;12.07;;;15.50;25.00;;;;;;5090880;28;20424;-78